Time;durP1;ratioP1;P1;durP2;ratioP2;P2;SDS_P1;SDS_P2;PMS_P1;PMS_P2;Temp;Humidity;BMP_temperature;BMP_pressure;BME280_temperature;BME280_humidity;BME280_pressure;Samples;Min_cycle;Max_cycle;Signal;HPM_P1;HPM_P2
2023/05/09 00:00:22;;;;;;;3.08;1.65;;;21.40;73.00;;;;;;2623084;52;20999;-75
2023/05/09 00:02:50;;;;;;;2.83;1.70;;;21.40;73.00;;;;;;2371407;53;21005;-74
2023/05/09 00:05:20;;;;;;;3.12;1.87;;;21.40;72.90;;;;;;2370641;53;20970;-75
2023/05/09 00:07:47;;;;;;;2.83;1.70;;;21.40;72.80;;;;;;2370793;53;20926;-75
2023/05/09 00:10:14;;;;;;;3.17;1.70;;;21.40;73.00;;;;;;2622787;52;21854;-76
2023/05/09 00:12:43;;;;;;;3.28;2.17;;;21.40;73.00;;;;;;2622524;52;20961;-74
2023/05/09 00:15:10;;;;;;;3.33;2.10;;;21.40;73.00;;;;;;2623150;52;20926;-74
2023/05/09 00:17:37;;;;;;;4.12;2.00;;;21.40;73.00;;;;;;2623068;52;21009;-75
2023/05/09 00:20:08;;;;;;;3.20;1.70;;;21.40;73.80;;;;;;2623712;52;20950;-74
2023/05/09 00:22:34;;;;;;;4.18;1.92;;;21.30;73.00;;;;;;2369596;53;21805;-75
2023/05/09 00:25:02;;;;;;;4.12;1.67;;;21.30;73.10;;;;;;2373918;53;20971;-74
2023/05/09 00:27:29;;;;;;;3.80;1.70;;;21.30;73.00;;;;;;2369523;53;20990;-75
2023/05/09 00:29:55;;;;;;;3.17;1.65;;;21.30;73.20;;;;;;2368144;53;20941;-74
2023/05/09 00:32:23;;;;;;;3.00;1.70;;;21.30;73.20;;;;;;2370107;53;20918;-73
2023/05/09 00:34:50;;;;;;;3.70;1.70;;;21.30;73.20;;;;;;2623426;52;20903;-75
2023/05/09 00:37:18;;;;;;;3.08;1.50;;;21.30;73.20;;;;;;2370379;53;20987;-74
2023/05/09 00:39:44;;;;;;;2.58;1.55;;;21.30;73.30;;;;;;2370261;53;20997;-74
2023/05/09 00:42:11;;;;;;;2.50;1.42;;;21.30;73.30;;;;;;2371152;53;20916;-75
2023/05/09 00:44:37;;;;;;;2.92;1.40;;;21.30;73.30;;;;;;2370399;53;21009;-75
2023/05/09 00:47:04;;;;;;;3.53;1.40;;;21.30;73.30;;;;;;2623439;52;20906;-74
2023/05/09 00:49:30;;;;;;;2.67;1.50;;;21.30;73.30;;;;;;2622640;52;21089;-74
2023/05/09 00:51:59;;;;;;;2.85;1.70;;;21.30;73.20;;;;;;2370616;52;20922;-74
2023/05/09 00:54:27;;;;;;;2.70;1.50;;;21.20;73.00;;;;;;2594103;52;20948;-75
2023/05/09 00:56:54;;;;;;;2.58;1.48;;;21.20;73.00;;;;;;2369865;53;20978;-74
2023/05/09 00:59:23;;;;;;;2.55;1.40;;;21.20;73.10;;;;;;2622928;52;21440;-75
2023/05/09 01:01:50;;;;;;;2.30;1.30;;;21.20;73.10;;;;;;2623145;52;20965;-74
2023/05/09 01:04:16;;;;;;;3.30;1.55;;;21.20;73.10;;;;;;2370695;53;20993;-73
2023/05/09 01:07:05;;;;;;;2.28;1.45;;;21.10;73.80;;;;;;2370319;53;20957;-75
2023/05/09 01:09:45;;;;;;;2.60;1.58;;;21.20;72.80;;;;;;2621988;52;21500;-73
2023/05/09 01:14:05;;;;;;;2.22;1.17;;;21.10;73.20;;;;;;2370640;53;21422;-74
2023/05/09 01:16:40;;;;;;;3.70;1.30;;;21.20;72.60;;;;;;2369691;53;21900;-74
2023/05/09 01:19:39;;;;;;;2.42;1.35;;;21.10;73.10;;;;;;2623700;52;21426;-74
2023/05/09 01:22:07;;;;;;;2.83;1.40;;;21.10;72.60;;;;;;2622733;52;21011;-74
2023/05/09 01:25:01;;;;;;;3.70;1.48;;;21.10;73.30;;;;;;2622863;52;21037;-74
2023/05/09 01:27:55;;;;;;;3.22;1.20;;;21.10;72.80;;;;;;2373274;53;21002;-73
2023/05/09 01:30:21;;;;;;;2.60;1.40;;;21.10;73.00;;;;;;2370362;53;21300;-75
2023/05/09 01:32:50;;;;;;;2.37;1.25;;;21.10;73.50;;;;;;2370940;53;20953;-74
2023/05/09 01:35:21;;;;;;;2.58;1.40;;;21.10;73.50;;;;;;2373088;53;21878;-74
2023/05/09 01:37:48;;;;;;;2.25;1.20;;;21.10;74.00;;;;;;2623797;52;20937;-75
2023/05/09 01:40:15;;;;;;;2.70;1.40;;;21.10;73.50;;;;;;2623146;52;20937;-74
2023/05/09 01:42:44;;;;;;;2.03;1.20;;;21.10;73.50;;;;;;2371032;53;20993;-75
2023/05/09 01:45:12;;;;;;;2.15;1.20;;;21.10;73.40;;;;;;2371434;53;20990;-75
2023/05/09 01:47:39;;;;;;;2.50;1.40;;;21.10;73.40;;;;;;2371166;53;21353;-74
2023/05/09 01:50:06;;;;;;;3.12;1.40;;;21.10;73.40;;;;;;2623632;52;20958;-74
2023/05/09 01:52:32;;;;;;;3.22;1.58;;;21.10;73.30;;;;;;2373131;53;22025;-74
2023/05/09 01:54:59;;;;;;;3.03;1.70;;;21.00;73.10;;;;;;2371508;53;20902;-75
2023/05/09 01:57:26;;;;;;;2.78;1.65;;;21.00;73.10;;;;;;2623372;52;21756;-74
2023/05/09 01:59:53;;;;;;;2.58;1.37;;;21.00;73.10;;;;;;2623988;52;21005;-74
2023/05/09 02:02:19;;;;;;;2.70;1.60;;;21.00;73.00;;;;;;2370287;53;21577;-74
2023/05/09 02:04:45;;;;;;;3.50;2.08;;;21.00;73.00;;;;;;2623921;52;20929;-74
2023/05/09 02:07:13;;;;;;;3.40;2.00;;;21.00;72.90;;;;;;2371095;53;20938;-74
2023/05/09 02:09:40;;;;;;;3.05;1.87;;;20.90;72.80;;;;;;2370556;53;21029;-74
2023/05/09 02:12:08;;;;;;;2.90;1.90;;;20.90;72.90;;;;;;2623461;52;20928;-75
2023/05/09 02:14:35;;;;;;;3.50;1.95;;;20.90;73.00;;;;;;2369773;53;20914;-74
2023/05/09 02:17:08;;;;;;;3.75;1.95;;;20.90;72.90;;;;;;2370908;53;20958;-75
2023/05/09 02:19:34;;;;;;;3.03;1.60;;;20.80;72.80;;;;;;2622879;52;20947;-75
2023/05/09 02:22:01;;;;;;;3.22;1.60;;;20.80;72.90;;;;;;2624118;52;20898;-73
2023/05/09 02:24:27;;;;;;;2.62;1.45;;;20.80;72.90;;;;;;2370789;53;20977;-74
2023/05/09 02:26:55;;;;;;;2.62;1.50;;;20.80;73.00;;;;;;2370938;53;21442;-75
2023/05/09 02:29:22;;;;;;;3.25;1.40;;;20.80;73.00;;;;;;2622447;52;20896;-74
2023/05/09 02:31:48;;;;;;;2.45;1.30;;;20.70;73.00;;;;;;2623120;52;21934;-76
2023/05/09 02:34:17;;;;;;;2.65;1.15;;;20.80;73.10;;;;;;2370957;53;20910;-75
2023/05/09 02:36:45;;;;;;;2.80;1.10;;;20.70;72.90;;;;;;2374922;53;21654;-74
2023/05/09 02:39:11;;;;;;;2.40;1.30;;;20.70;73.00;;;;;;2373439;53;20910;-73
2023/05/09 02:41:38;;;;;;;2.22;1.05;;;20.70;73.10;;;;;;2622066;52;20989;-76
2023/05/09 02:44:04;;;;;;;2.75;1.37;;;20.70;73.10;;;;;;2371477;53;20966;-74
2023/05/09 02:46:32;;;;;;;3.25;1.50;;;20.70;73.10;;;;;;2623540;52;20926;-74
2023/05/09 02:49:22;;;;;;;3.10;1.58;;;20.70;73.10;;;;;;2624521;52;20934;-74
2023/05/09 02:51:57;;;;;;;2.80;1.52;;;20.70;73.00;;;;;;2624504;52;20983;-75
2023/05/09 02:54:35;;;;;;;3.20;1.50;;;20.70;73.10;;;;;;2369157;53;21006;-73
2023/05/09 02:57:05;;;;;;;2.60;1.52;;;20.70;73.00;;;;;;2622469;52;21331;-74
2023/05/09 02:59:41;;;;;;;2.85;1.85;;;20.70;73.10;;;;;;2622416;52;21534;-73
2023/05/09 03:02:08;;;;;;;3.10;1.77;;;20.70;72.80;;;;;;2349212;53;1381320;-73
2023/05/09 03:04:37;;;;;;;4.32;1.83;;;20.60;73.10;;;;;;2370749;53;21013;-75
2023/05/09 03:07:03;;;;;;;3.25;1.98;;;20.70;73.10;;;;;;2374488;53;20966;-75
2023/05/09 03:09:30;;;;;;;3.58;1.95;;;20.70;73.30;;;;;;2623562;52;21304;-75
2023/05/09 03:11:56;;;;;;;2.92;1.80;;;20.60;73.30;;;;;;2371680;53;20965;-73
2023/05/09 03:14:22;;;;;;;3.45;2.20;;;20.60;73.30;;;;;;2370261;53;20953;-73
2023/05/09 03:16:49;;;;;;;2.60;1.70;;;20.60;73.30;;;;;;2624077;52;21013;-76
2023/05/09 03:19:15;;;;;;;2.87;1.48;;;20.60;73.40;;;;;;2623380;52;21024;-74
2023/05/09 03:21:41;;;;;;;2.53;1.55;;;20.60;73.30;;;;;;2623518;52;20937;-74
2023/05/09 03:24:09;;;;;;;3.60;1.77;;;20.60;73.30;;;;;;2623501;52;21480;-74
2023/05/09 03:26:36;;;;;;;4.55;2.80;;;20.60;73.30;;;;;;2622578;52;21021;-73
2023/05/09 03:29:03;;;;;;;4.68;3.35;;;20.60;73.30;;;;;;2371108;53;20997;-75
2023/05/09 03:31:29;;;;;;;5.60;3.47;;;20.60;73.20;;;;;;2375058;53;21033;-75
2023/05/09 03:33:56;;;;;;;6.00;3.80;;;20.60;73.30;;;;;;2377089;53;20908;-73
2023/05/09 03:36:22;;;;;;;5.85;3.37;;;20.60;73.30;;;;;;2371943;53;20930;-74
2023/05/09 03:38:48;;;;;;;4.75;2.95;;;20.60;73.40;;;;;;2620414;52;21498;-76
2023/05/09 03:41:15;;;;;;;4.03;2.47;;;20.60;73.40;;;;;;2371590;53;20920;-74
2023/05/09 03:43:44;;;;;;;4.12;2.60;;;20.60;73.40;;;;;;2623784;52;20922;-75
2023/05/09 03:46:11;;;;;;;3.53;1.98;;;20.50;73.30;;;;;;2371340;53;21498;-75
2023/05/09 03:48:38;;;;;;;3.78;2.15;;;20.60;73.40;;;;;;2371186;53;20961;-76
2023/05/09 03:51:04;;;;;;;4.18;2.47;;;20.50;73.30;;;;;;2371084;53;21010;-74
2023/05/09 03:53:33;;;;;;;3.22;1.98;;;20.50;73.20;;;;;;2623781;52;21036;-73
2023/05/09 03:55:59;;;;;;;3.75;2.10;;;20.50;73.30;;;;;;2624093;52;20898;-76
2023/05/09 03:58:27;;;;;;;3.87;2.08;;;20.50;73.30;;;;;;2371533;53;20962;-74
2023/05/09 04:00:57;;;;;;;3.60;2.40;;;20.50;73.30;;;;;;2370329;53;21076;-73
2023/05/09 04:03:24;;;;;;;3.42;2.22;;;20.50;73.30;;;;;;2370723;53;22220;-73
2023/05/09 04:05:52;;;;;;;3.10;2.08;;;20.50;73.40;;;;;;2371230;53;20934;-74
2023/05/09 04:08:19;;;;;;;3.72;2.10;;;20.50;73.50;;;;;;2370921;53;22047;-76
2023/05/09 04:10:45;;;;;;;5.25;1.98;;;20.50;73.50;;;;;;2370562;52;20961;-74
2023/05/09 04:13:12;;;;;;;3.20;1.95;;;20.50;73.60;;;;;;2623535;52;21000;-76
2023/05/09 04:15:38;;;;;;;4.18;1.83;;;20.50;73.60;;;;;;2622409;52;20922;-73
2023/05/09 04:18:06;;;;;;;2.92;1.73;;;20.50;73.60;;;;;;2623347;52;21799;-74
2023/05/09 04:20:32;;;;;;;2.80;1.52;;;20.50;73.60;;;;;;2373781;53;20956;-74
2023/05/09 04:22:59;;;;;;;2.08;1.17;;;20.50;73.60;;;;;;2370869;53;20957;-76
2023/05/09 04:25:26;;;;;;;2.47;1.30;;;20.50;73.70;;;;;;2622445;52;21835;-75
2023/05/09 04:27:52;;;;;;;2.28;1.17;;;20.50;73.70;;;;;;2371066;53;20933;-75
2023/05/09 04:30:19;;;;;;;3.22;1.23;;;20.50;73.70;;;;;;2623857;52;20937;-75
2023/05/09 04:32:53;;;;;;;2.95;1.48;;;20.50;73.70;;;;;;2374532;53;21003;-73
2023/05/09 04:35:22;;;;;;;3.67;1.70;;;20.50;73.60;;;;;;2370870;53;20994;-73
2023/05/09 04:37:50;;;;;;;2.90;1.65;;;20.50;73.60;;;;;;2371418;53;20925;-74
2023/05/09 04:40:17;;;;;;;3.22;1.50;;;20.50;73.60;;;;;;2371024;53;20910;-73
2023/05/09 04:42:45;;;;;;;2.95;1.60;;;20.50;73.60;;;;;;2623516;52;21383;-73
2023/05/09 04:45:12;;;;;;;2.72;1.58;;;20.50;73.60;;;;;;2623636;52;20977;-74
2023/05/09 04:47:40;;;;;;;3.25;1.80;;;20.50;74.30;;;;;;2370670;53;20942;-74
2023/05/09 04:50:08;;;;;;;3.22;1.90;;;20.40;73.60;;;;;;2624342;52;20914;-73
2023/05/09 04:52:36;;;;;;;3.90;2.03;;;20.50;73.80;;;;;;2623708;52;20950;-74
2023/05/09 04:55:05;;;;;;;3.80;2.12;;;20.50;73.70;;;;;;2375218;53;20976;-73
2023/05/09 04:57:32;;;;;;;3.00;1.92;;;20.50;73.90;;;;;;2369313;53;20930;-73
2023/05/09 04:59:58;;;;;;;3.15;1.80;;;20.50;74.00;;;;;;2371036;53;21026;-74
2023/05/09 05:02:24;;;;;;;2.92;2.05;;;20.50;74.00;;;;;;2623561;52;21372;-72
2023/05/09 05:04:51;;;;;;;7.12;2.40;;;20.60;74.00;;;;;;2371063;53;21014;-73
2023/05/09 05:07:17;;;;;;;3.70;2.20;;;20.60;74.00;;;;;;2371082;53;20922;-73
2023/05/09 05:09:44;;;;;;;3.55;1.98;;;20.60;74.00;;;;;;2623292;52;21407;-73
2023/05/09 05:12:10;;;;;;;3.08;1.80;;;20.60;73.90;;;;;;2370987;53;20922;-73
2023/05/09 05:14:38;;;;;;;3.20;1.67;;;20.60;74.00;;;;;;2373933;53;20932;-74
2023/05/09 05:17:04;;;;;;;3.03;1.77;;;20.60;74.10;;;;;;2623199;52;20984;-75
2023/05/09 05:19:33;;;;;;;2.90;1.75;;;20.60;74.10;;;;;;2615446;52;21109;-74
2023/05/09 05:22:00;;;;;;;3.78;1.70;;;20.60;74.20;;;;;;2623920;52;20973;-74
2023/05/09 05:24:27;;;;;;;3.55;1.95;;;20.60;74.20;;;;;;2370299;53;21823;-75
2023/05/09 05:26:55;;;;;;;3.05;1.67;;;20.70;74.30;;;;;;2623997;52;20957;-73
2023/05/09 05:29:21;;;;;;;2.78;1.60;;;20.70;74.30;;;;;;2371059;53;21560;-73
2023/05/09 05:31:47;;;;;;;3.05;1.98;;;20.70;74.30;;;;;;2373429;53;20955;-74
2023/05/09 05:34:15;;;;;;;3.20;2.00;;;20.70;74.20;;;;;;2374781;53;20916;-73
2023/05/09 05:36:41;;;;;;;5.70;2.67;;;20.70;74.20;;;;;;2623672;52;21005;-75
2023/05/09 05:39:10;;;;;;;3.53;2.12;;;20.70;74.00;;;;;;2374007;53;21694;-73
2023/05/09 05:41:36;;;;;;;4.07;2.30;;;20.70;73.90;;;;;;2371056;53;20986;-73
2023/05/09 05:44:02;;;;;;;3.33;1.95;;;20.70;73.80;;;;;;2623742;52;21257;-74
2023/05/09 05:46:29;;;;;;;3.60;2.20;;;20.70;73.90;;;;;;2623818;52;20922;-74
2023/05/09 05:48:57;;;;;;;4.85;2.00;;;20.70;73.90;;;;;;2370432;53;21060;-74
2023/05/09 05:51:26;;;;;;;3.70;2.00;;;20.70;73.90;;;;;;2623251;52;21946;-74
2023/05/09 05:53:53;;;;;;;3.50;2.03;;;20.70;73.90;;;;;;2370787;53;20914;-74
2023/05/09 05:56:19;;;;;;;3.20;2.03;;;20.70;73.90;;;;;;2623512;52;20902;-75
2023/05/09 05:58:46;;;;;;;4.75;1.98;;;20.70;74.00;;;;;;2623623;52;21424;-75
2023/05/09 06:01:12;;;;;;;3.15;2.00;;;20.70;74.00;;;;;;2370962;53;21435;-73
2023/05/09 06:03:39;;;;;;;2.85;1.70;;;20.70;73.90;;;;;;2370531;53;20966;-73
2023/05/09 06:06:05;;;;;;;2.62;1.52;;;20.80;74.10;;;;;;2624044;52;21459;-74
2023/05/09 06:08:32;;;;;;;3.42;1.83;;;20.80;74.10;;;;;;2623671;52;21747;-73
2023/05/09 06:10:59;;;;;;;3.55;1.90;;;20.80;74.10;;;;;;2623276;52;20982;-73
2023/05/09 06:13:26;;;;;;;3.50;2.20;;;20.80;74.00;;;;;;2623267;52;21407;-73
2023/05/09 06:15:56;;;;;;;2.80;1.75;;;20.80;74.10;;;;;;2370445;53;20956;-74
2023/05/09 06:18:26;;;;;;;3.70;2.27;;;20.80;73.90;;;;;;2370922;53;20953;-73
2023/05/09 06:20:53;;;;;;;3.28;1.92;;;20.80;73.90;;;;;;2623387;52;20884;-74
2023/05/09 06:23:21;;;;;;;3.33;1.87;;;20.80;74.00;;;;;;2623557;52;20989;-73
2023/05/09 06:25:49;;;;;;;3.75;2.12;;;20.80;74.00;;;;;;2623524;52;20922;-73
2023/05/09 06:28:20;;;;;;;5.28;2.65;;;20.80;74.00;;;;;;2371124;53;21017;-73
2023/05/09 06:30:50;;;;;;;3.12;1.80;;;20.90;74.00;;;;;;2623264;52;21625;-75
2023/05/09 06:33:16;;;;;;;3.15;2.00;;;20.90;74.10;;;;;;2623813;52;20906;-74
2023/05/09 06:35:43;;;;;;;3.33;1.90;;;20.90;74.30;;;;;;2370767;53;20906;-74
2023/05/09 06:38:09;;;;;;;3.50;2.03;;;20.90;74.20;;;;;;2374483;53;20948;-73
2023/05/09 06:40:36;;;;;;;3.37;2.05;;;20.90;74.30;;;;;;2622321;52;21004;-74
2023/05/09 06:43:03;;;;;;;3.12;1.83;;;21.00;74.30;;;;;;2623487;52;21440;-73
2023/05/09 06:45:29;;;;;;;3.37;2.30;;;21.00;74.30;;;;;;2622299;52;21003;-74
2023/05/09 06:47:57;;;;;;;3.87;2.00;;;21.00;74.40;;;;;;2373658;53;20992;-74
2023/05/09 06:50:23;;;;;;;4.95;2.70;;;21.00;74.50;;;;;;2623185;52;21748;-74
2023/05/09 06:52:51;;;;;;;4.32;2.60;;;21.10;74.60;;;;;;2623293;52;20973;-74
2023/05/09 06:55:20;;;;;;;3.80;2.00;;;21.10;74.60;;;;;;2371434;53;20933;-74
2023/05/09 06:57:47;;;;;;;3.35;2.03;;;21.20;74.60;;;;;;2623945;52;21799;-73
2023/05/09 07:00:14;;;;;;;5.12;1.92;;;21.20;75.10;;;;;;2624130;52;20994;-74
2023/05/09 07:02:41;;;;;;;4.07;2.10;;;21.20;74.20;;;;;;2371660;53;20934;-73
2023/05/09 07:05:08;;;;;;;3.85;2.00;;;21.30;74.30;;;;;;2624344;52;20995;-74
2023/05/09 07:07:35;;;;;;;3.92;2.40;;;21.30;74.30;;;;;;2623861;52;21891;-74
2023/05/09 07:10:03;;;;;;;3.37;1.80;;;21.30;74.30;;;;;;2623460;52;20975;-74
2023/05/09 07:12:36;;;;;;;3.08;1.77;;;21.40;74.60;;;;;;2623524;52;21034;-73
2023/05/09 07:15:02;;;;;;;4.40;1.90;;;21.40;74.30;;;;;;2624243;52;21018;-74
2023/05/09 07:17:30;;;;;;;3.40;2.10;;;21.50;74.40;;;;;;2370590;52;20910;-74
2023/05/09 07:19:56;;;;;;;3.97;2.45;;;21.50;74.30;;;;;;2371633;53;21017;-74
2023/05/09 07:22:25;;;;;;;5.93;3.92;;;21.50;74.40;;;;;;2623156;52;20990;-74
2023/05/09 07:24:51;;;;;;;5.20;3.40;;;21.60;74.60;;;;;;2371003;53;21507;-74
2023/05/09 07:27:18;;;;;;;5.03;3.47;;;21.60;74.60;;;;;;2623314;52;20938;-74
2023/05/09 07:29:44;;;;;;;4.85;3.00;;;21.70;74.70;;;;;;2370793;53;20919;-74
2023/05/09 07:32:11;;;;;;;5.72;3.12;;;21.80;74.80;;;;;;2371648;53;21791;-74
2023/05/09 07:34:37;;;;;;;4.90;3.00;;;21.80;74.40;;;;;;2371081;53;20964;-74
2023/05/09 07:37:06;;;;;;;4.35;2.60;;;21.90;74.20;;;;;;2624465;52;20923;-74
2023/05/09 07:39:32;;;;;;;3.50;2.30;;;21.90;73.80;;;;;;2623820;52;20953;-74
2023/05/09 07:41:59;;;;;;;3.92;2.28;;;21.90;73.60;;;;;;2623763;52;20973;-74
2023/05/09 07:44:25;;;;;;;3.87;2.70;;;21.90;73.30;;;;;;2371151;53;20958;-74
2023/05/09 07:46:54;;;;;;;4.22;2.20;;;22.00;73.30;;;;;;2370998;53;20939;-73
2023/05/09 07:49:21;;;;;;;3.72;2.20;;;22.00;73.30;;;;;;2371671;53;20962;-73
2023/05/09 07:51:49;;;;;;;3.85;2.30;;;22.00;73.30;;;;;;2624079;52;20942;-74
2023/05/09 07:54:15;;;;;;;4.37;2.30;;;22.00;73.40;;;;;;2624269;52;21057;-74
2023/05/09 07:56:41;;;;;;;3.72;2.35;;;22.10;73.30;;;;;;2623826;52;20891;-74
2023/05/09 07:59:09;;;;;;;3.83;3.00;;;22.10;73.30;;;;;;2623952;52;21462;-74
2023/05/09 08:01:38;;;;;;;4.20;2.85;;;22.10;73.40;;;;;;2623301;52;20969;-74
2023/05/09 08:04:07;;;;;;;3.40;2.22;;;22.20;73.30;;;;;;2371435;53;21006;-74
2023/05/09 08:06:34;;;;;;;3.25;2.00;;;22.20;73.50;;;;;;2373376;53;21027;-74
2023/05/09 08:09:03;;;;;;;3.70;2.17;;;22.20;73.70;;;;;;2623477;52;21699;-74
2023/05/09 08:11:33;;;;;;;4.50;2.10;;;22.30;73.70;;;;;;2372283;53;20989;-73
2023/05/09 08:14:00;;;;;;;3.70;2.50;;;22.40;73.50;;;;;;2623531;52;21436;-74
2023/05/09 08:16:27;;;;;;;3.90;2.25;;;22.40;73.40;;;;;;2623073;52;21302;-74
2023/05/09 08:18:54;;;;;;;3.60;2.60;;;22.50;73.30;;;;;;2371444;53;20993;-72
2023/05/09 08:21:22;;;;;;;3.33;2.33;;;22.50;73.20;;;;;;2371279;53;21005;-74
2023/05/09 08:23:51;;;;;;;4.15;2.17;;;22.50;73.30;;;;;;2622443;52;20979;-74
2023/05/09 08:26:18;;;;;;;3.03;1.92;;;22.60;73.50;;;;;;2370949;53;20929;-74
2023/05/09 08:28:44;;;;;;;3.12;1.90;;;22.60;73.40;;;;;;2623386;52;21408;-73
2023/05/09 08:31:10;;;;;;;5.00;2.50;;;22.70;73.60;;;;;;2623917;52;20953;-75
2023/05/09 08:33:37;;;;;;;3.47;2.20;;;22.70;73.70;;;;;;2623261;52;21225;-74
2023/05/09 08:36:04;;;;;;;4.12;2.15;;;22.80;74.00;;;;;;2623834;52;20922;-75
2023/05/09 08:38:35;;;;;;;4.15;2.10;;;22.80;74.20;;;;;;2623798;52;21001;-74
2023/05/09 08:41:01;;;;;;;3.60;1.85;;;22.90;74.20;;;;;;2623284;52;21008;-74
2023/05/09 08:43:31;;;;;;;3.22;1.75;;;23.00;74.50;;;;;;2608279;52;20954;-74
2023/05/09 08:45:59;;;;;;;3.25;1.67;;;23.10;74.80;;;;;;2618764;52;20953;-75
2023/05/09 08:48:26;;;;;;;4.03;1.92;;;23.20;74.50;;;;;;2370621;53;20926;-74
2023/05/09 08:50:53;;;;;;;2.72;1.70;;;23.30;74.30;;;;;;2623517;52;20958;-74
2023/05/09 08:53:21;;;;;;;2.50;1.58;;;23.40;73.90;;;;;;2623762;52;20950;-73
2023/05/09 08:55:51;;;;;;;3.20;1.60;;;23.50;73.70;;;;;;2623815;52;21329;-72
2023/05/09 08:58:21;;;;;;;3.08;1.77;;;23.50;73.30;;;;;;2623949;52;21510;-73
2023/05/09 09:00:49;;;;;;;3.55;2.00;;;23.60;72.70;;;;;;2622770;52;20976;-73
2023/05/09 09:03:15;;;;;;;3.72;1.90;;;23.60;72.70;;;;;;2616344;52;21791;-73
2023/05/09 09:05:42;;;;;;;3.72;2.12;;;23.60;72.40;;;;;;2370178;53;22203;-73
2023/05/09 09:08:12;;;;;;;4.35;1.58;;;23.60;72.10;;;;;;2370990;53;20977;-73
2023/05/09 09:10:40;;;;;;;3.85;1.90;;;23.60;72.70;;;;;;2622886;52;21000;-75
2023/05/09 09:13:07;;;;;;;3.45;1.70;;;23.60;72.00;;;;;;2370811;53;21486;-74
2023/05/09 09:15:36;;;;;;;3.03;1.65;;;23.60;72.10;;;;;;2623094;52;21411;-74
2023/05/09 09:18:08;;;;;;;2.90;1.80;;;23.60;72.10;;;;;;2623823;52;20977;-72
2023/05/09 09:20:37;;;;;;;2.70;1.60;;;23.70;71.90;;;;;;2623673;52;21009;-74
2023/05/09 09:23:04;;;;;;;3.30;1.60;;;23.70;72.10;;;;;;2622805;52;21053;-72
2023/05/09 09:25:30;;;;;;;2.90;1.60;;;23.70;71.90;;;;;;2373942;53;21155;-74
2023/05/09 09:27:58;;;;;;;3.40;1.60;;;23.70;71.70;;;;;;2622352;52;20979;-73
2023/05/09 09:30:25;;;;;;;2.70;1.40;;;23.80;71.90;;;;;;2370233;53;20926;-74
2023/05/09 09:32:51;;;;;;;5.30;2.10;;;23.80;72.00;;;;;;2623898;52;20954;-74
2023/05/09 09:35:19;;;;;;;2.90;1.60;;;23.80;71.90;;;;;;2371559;53;20941;-74
2023/05/09 09:37:45;;;;;;;3.00;1.90;;;23.80;71.90;;;;;;2623767;52;20945;-74
2023/05/09 09:40:13;;;;;;;2.95;1.70;;;23.80;71.90;;;;;;2623363;52;21818;-75
2023/05/09 09:42:40;;;;;;;3.58;2.15;;;23.90;71.80;;;;;;2622832;52;21010;-75
2023/05/09 09:45:12;;;;;;;3.45;1.75;;;23.90;71.50;;;;;;2371101;53;20966;-73
2023/05/09 09:47:39;;;;;;;3.25;1.80;;;23.90;70.80;;;;;;2371220;52;20954;-75
2023/05/09 09:50:15;;;;;;;2.72;1.60;;;23.90;71.30;;;;;;2623611;52;21015;-74
2023/05/09 09:52:50;;;;;;;3.10;2.17;;;24.00;70.80;;;;;;2371994;53;21838;-73
2023/05/09 09:55:17;;;;;;;3.30;1.85;;;24.00;70.60;;;;;;2622191;52;20962;-74
2023/05/09 09:57:45;;;;;;;3.08;1.75;;;24.00;71.40;;;;;;2373319;53;22856;-73
2023/05/09 10:00:13;;;;;;;4.55;1.92;;;24.00;71.50;;;;;;2624823;52;20954;-74
2023/05/09 10:02:59;;;;;;;3.00;1.70;;;24.10;71.70;;;;;;2370451;53;21874;-74
2023/05/09 10:05:26;;;;;;;3.10;1.80;;;24.10;70.50;;;;;;2375025;53;21432;-74
2023/05/09 10:08:00;;;;;;;3.03;1.98;;;24.20;71.80;;;;;;2623724;52;20917;-74
2023/05/09 10:10:32;;;;;;;3.33;2.10;;;24.20;71.10;;;;;;2623595;52;20898;-74
2023/05/09 10:13:05;;;;;;;3.72;2.20;;;24.30;71.10;;;;;;2623776;52;21725;-74
2023/05/09 10:15:31;;;;;;;3.40;2.10;;;24.30;71.30;;;;;;2623994;52;20914;-74
2023/05/09 10:18:03;;;;;;;3.33;1.95;;;24.40;71.30;;;;;;2370595;53;20986;-74
2023/05/09 10:20:30;;;;;;;3.22;1.73;;;24.40;71.00;;;;;;2623030;52;20911;-74
2023/05/09 10:23:00;;;;;;;3.42;1.75;;;24.50;71.10;;;;;;2378407;53;20908;-75
2023/05/09 10:25:40;;;;;;;3.22;1.85;;;24.50;70.90;;;;;;2360285;53;20926;-74
2023/05/09 10:28:10;;;;;;;2.65;1.60;;;24.60;69.80;;;;;;2374705;53;22205;-76
2023/05/09 10:30:54;;;;;;;4.05;1.65;;;24.60;70.10;;;;;;2367015;53;21858;-74
2023/05/09 10:33:25;;;;;;;3.20;1.87;;;24.60;69.40;;;;;;2622701;52;20938;-75
2023/05/09 10:35:51;;;;;;;2.83;1.60;;;24.60;69.40;;;;;;2371644;53;21966;-74
2023/05/09 10:38:17;;;;;;;2.60;1.50;;;24.70;69.80;;;;;;2374582;52;21472;-74
2023/05/09 10:40:46;;;;;;;2.97;1.60;;;24.70;70.10;;;;;;2373563;53;21490;-74
2023/05/09 10:43:13;;;;;;;2.85;1.42;;;24.70;70.00;;;;;;2370506;53;21529;-74
2023/05/09 10:45:39;;;;;;;2.50;1.20;;;24.70;70.40;;;;;;2623519;52;22010;-75
2023/05/09 10:48:07;;;;;;;4.55;1.60;;;24.80;70.50;;;;;;2623569;52;21767;-77
2023/05/09 10:50:35;;;;;;;2.65;1.37;;;24.90;70.40;;;;;;2373828;53;21306;-76
2023/05/09 10:53:10;;;;;;;4.30;1.50;;;24.90;70.10;;;;;;2370460;53;21005;-75
2023/05/09 10:55:48;;;;;;;2.45;1.23;;;25.00;69.20;;;;;;2375856;53;21075;-77
2023/05/09 10:58:25;;;;;;;2.55;1.40;;;25.00;69.20;;;;;;2622491;52;21033;-76
2023/05/09 11:00:56;;;;;;;3.12;1.50;;;25.10;68.70;;;;;;2371806;53;20989;-74
2023/05/09 11:03:26;;;;;;;3.45;1.80;;;25.10;69.70;;;;;;2371475;53;20973;-74
2023/05/09 11:05:55;;;;;;;2.62;1.50;;;25.10;69.60;;;;;;2371487;53;20950;-76
2023/05/09 11:08:32;;;;;;;2.60;1.40;;;25.20;69.20;;;;;;2371285;53;20990;-74
2023/05/09 11:11:05;;;;;;;2.60;1.60;;;25.20;68.20;;;;;;2371114;53;20945;-74
2023/05/09 11:13:35;;;;;;;2.95;1.83;;;25.30;68.40;;;;;;2370668;53;21462;-74
2023/05/09 11:16:07;;;;;;;3.12;1.48;;;25.30;69.20;;;;;;2624045;52;20905;-75
2023/05/09 11:18:49;;;;;;;2.97;1.58;;;25.40;68.60;;;;;;2623945;52;20973;-75
2023/05/09 11:21:15;;;;;;;2.40;1.20;;;25.40;67.70;;;;;;2624038;52;21697;-75
2023/05/09 11:23:43;;;;;;;2.42;1.33;;;25.40;69.20;;;;;;2370530;53;20922;-74
2023/05/09 11:26:09;;;;;;;2.62;1.35;;;25.50;69.30;;;;;;2371444;53;21874;-76
2023/05/09 11:28:36;;;;;;;3.30;1.50;;;25.50;69.40;;;;;;2370709;53;21033;-75
2023/05/09 11:31:15;;;;;;;2.50;1.30;;;25.60;68.90;;;;;;2371534;53;20993;-76
2023/05/09 11:33:46;;;;;;;2.80;1.30;;;25.60;67.20;;;;;;2374206;53;21063;-75
2023/05/09 11:36:30;;;;;;;3.42;1.20;;;25.60;68.30;;;;;;2623570;52;21706;-75
2023/05/09 11:39:09;;;;;;;2.28;1.10;;;25.70;66.40;;;;;;2624132;52;20949;-74
2023/05/09 11:41:53;;;;;;;2.58;1.27;;;25.70;67.40;;;;;;2373999;53;20951;-74
2023/05/09 11:44:26;;;;;;;2.72;1.45;;;25.70;66.60;;;;;;2370629;53;20921;-74
2023/05/09 11:46:54;;;;;;;3.12;1.30;;;25.80;68.20;;;;;;2623729;52;21684;-73
2023/05/09 11:49:21;;;;;;;2.40;1.10;;;25.80;68.00;;;;;;2373546;53;21950;-74
2023/05/09 11:51:48;;;;;;;2.55;1.23;;;25.80;67.80;;;;;;2373044;53;20983;-74
2023/05/09 11:54:15;;;;;;;3.08;1.60;;;25.90;67.50;;;;;;2370584;53;21246;-74
2023/05/09 11:56:41;;;;;;;2.30;1.10;;;25.90;67.30;;;;;;2370587;53;21343;-75
2023/05/09 11:59:09;;;;;;;3.85;1.45;;;25.90;67.30;;;;;;2623355;52;20918;-76
2023/05/09 12:01:36;;;;;;;2.60;1.25;;;25.90;67.40;;;;;;2622254;52;20948;-74
2023/05/09 12:04:07;;;;;;;3.10;1.30;;;25.90;67.00;;;;;;2370467;53;20918;-73
2023/05/09 12:06:35;;;;;;;2.62;1.30;;;26.00;66.60;;;;;;2623214;52;20961;-74
2023/05/09 12:09:03;;;;;;;2.67;1.00;;;25.90;67.00;;;;;;2623716;52;20901;-75
2023/05/09 12:11:33;;;;;;;2.95;1.20;;;26.00;66.80;;;;;;2623747;52;20943;-73
2023/05/09 12:14:00;;;;;;;2.87;1.10;;;26.00;66.50;;;;;;2624157;52;21029;-74
2023/05/09 12:16:28;;;;;;;2.58;1.20;;;26.00;66.60;;;;;;2351726;54;20930;-75
2023/05/09 12:18:57;;;;;;;2.75;1.20;;;26.00;66.60;;;;;;2378275;53;21002;-75
2023/05/09 12:21:25;;;;;;;2.30;1.27;;;26.00;66.70;;;;;;2364839;53;20997;-74
2023/05/09 12:23:54;;;;;;;2.60;1.10;;;26.00;66.30;;;;;;2624291;52;20963;-74
2023/05/09 12:26:23;;;;;;;2.67;1.10;;;26.10;65.80;;;;;;2623104;52;20957;-76
2023/05/09 12:28:49;;;;;;;2.30;0.80;;;26.00;65.90;;;;;;2372164;53;21029;-74
2023/05/09 12:31:15;;;;;;;2.28;1.00;;;26.10;66.10;;;;;;2371739;53;20950;-74
2023/05/09 12:33:42;;;;;;;1.83;0.90;;;26.00;65.90;;;;;;2623337;52;21001;-76
2023/05/09 12:36:09;;;;;;;2.30;1.10;;;26.00;65.90;;;;;;2624289;52;20981;-74
2023/05/09 12:38:36;;;;;;;2.40;1.05;;;26.10;65.80;;;;;;2370213;53;21364;-75
2023/05/09 12:41:12;;;;;;;2.40;1.12;;;26.10;65.80;;;;;;2624203;52;20914;-74
2023/05/09 12:43:51;;;;;;;2.00;1.10;;;26.20;64.70;;;;;;2370690;53;21057;-75
2023/05/09 12:46:21;;;;;;;2.40;1.27;;;26.20;66.10;;;;;;2371299;53;20978;-74
2023/05/09 12:48:48;;;;;;;2.20;1.27;;;26.20;66.10;;;;;;2624293;52;20906;-75
2023/05/09 12:51:20;;;;;;;2.50;1.20;;;26.20;66.30;;;;;;2371153;53;20922;-73
2023/05/09 12:53:47;;;;;;;1.87;1.05;;;26.20;65.80;;;;;;2371190;53;20922;-75
2023/05/09 12:56:15;;;;;;;2.95;1.15;;;26.30;66.60;;;;;;2624258;52;20939;-74